Time;durP1;ratioP1;P1;durP2;ratioP2;P2;SDS_P1;SDS_P2;PMS_P1;PMS_P2;Temp;Humidity;BMP_temperature;BMP_pressure;BME280_temperature;BME280_humidity;BME280_pressure;Samples;Min_cycle;Max_cycle;Signal;HPM_P1;HPM_P2
2022/07/04 00:00:27;;;;;;;2.13;1.73;;;21.10;99.90;;;;;;5046728;28;20188;-32
2022/07/04 00:02:54;;;;;;;3.35;2.10;;;21.10;99.90;;;;;;5042662;28;20204;-32
2022/07/04 00:05:20;;;;;;;2.75;1.90;;;21.10;99.90;;;;;;5040544;28;20557;-31
2022/07/04 00:07:48;;;;;;;3.75;1.80;;;21.00;99.90;;;;;;5048418;28;20181;-32
2022/07/04 00:10:17;;;;;;;2.20;2.00;;;20.90;99.90;;;;;;5083617;28;20264;-32
2022/07/04 00:12:44;;;;;;;2.28;2.08;;;20.90;99.90;;;;;;5070196;28;20291;-32
2022/07/04 00:15:11;;;;;;;2.47;1.85;;;20.90;99.90;;;;;;5054795;28;20222;-32
2022/07/04 00:17:37;;;;;;;4.38;1.77;;;20.80;99.90;;;;;;5070335;28;20184;-32
2022/07/04 00:20:04;;;;;;;4.43;1.90;;;20.70;99.90;;;;;;5070596;28;20180;-32
2022/07/04 00:22:30;;;;;;;2.08;1.92;;;20.80;99.90;;;;;;5086718;28;20216;-32
2022/07/04 00:24:56;;;;;;;3.05;1.90;;;20.70;99.90;;;;;;5069079;28;20183;-31
2022/07/04 00:27:22;;;;;;;5.15;2.25;;;20.60;99.90;;;;;;5057596;28;20184;-32
2022/07/04 00:29:48;;;;;;;2.30;2.10;;;20.60;99.90;;;;;;5070493;28;20173;-32
2022/07/04 00:32:14;;;;;;;2.30;2.10;;;20.60;99.90;;;;;;5088500;28;20200;-32
2022/07/04 00:34:40;;;;;;;4.45;2.10;;;20.70;99.90;;;;;;5051840;28;20266;-31
2022/07/04 00:37:06;;;;;;;2.20;2.00;;;20.70;99.90;;;;;;5059442;28;20197;-32
2022/07/04 00:39:32;;;;;;;3.03;2.13;;;20.70;99.90;;;;;;5068707;28;20183;-32
2022/07/04 00:41:57;;;;;;;2.95;2.30;;;20.80;99.90;;;;;;5053446;28;20307;-32
2022/07/04 00:44:24;;;;;;;2.45;2.08;;;20.80;99.90;;;;;;5069086;28;20173;-32
2022/07/04 00:46:50;;;;;;;3.05;2.30;;;20.80;99.90;;;;;;5060509;28;20175;-32
2022/07/04 00:49:17;;;;;;;1.90;1.80;;;20.80;99.90;;;;;;5070121;28;20188;-31
2022/07/04 00:51:45;;;;;;;2.60;2.10;;;20.80;99.90;;;;;;5070340;28;20203;-31
2022/07/04 00:54:13;;;;;;;2.97;2.13;;;20.80;99.90;;;;;;5060834;28;20641;-32
2022/07/04 00:56:40;;;;;;;2.50;2.05;;;20.80;99.90;;;;;;5069666;28;20184;-32
2022/07/04 00:59:07;;;;;;;2.97;2.00;;;20.80;99.90;;;;;;5054039;28;20225;-32
2022/07/04 01:01:34;;;;;;;3.88;2.40;;;20.80;99.90;;;;;;5053548;28;20201;-32
2022/07/04 01:04:02;;;;;;;3.95;2.05;;;20.80;99.90;;;;;;5085528;28;20263;-32
2022/07/04 01:06:28;;;;;;;2.10;1.90;;;20.90;99.90;;;;;;5074881;28;20173;-32
2022/07/04 01:08:54;;;;;;;3.75;2.00;;;20.90;99.90;;;;;;5070481;28;20181;-32
2022/07/04 01:11:20;;;;;;;3.60;2.05;;;20.90;99.90;;;;;;5069738;28;20212;-32
2022/07/04 01:13:46;;;;;;;2.70;2.25;;;20.90;99.90;;;;;;5059884;28;20204;-32
2022/07/04 01:16:12;;;;;;;2.00;1.90;;;20.80;99.90;;;;;;5055375;28;20188;-32
2022/07/04 01:18:38;;;;;;;3.35;2.03;;;20.80;99.90;;;;;;5061686;28;20199;-32
2022/07/04 01:21:05;;;;;;;2.53;1.90;;;20.80;99.90;;;;;;5069133;28;20349;-31
2022/07/04 01:23:31;;;;;;;3.70;2.03;;;20.90;99.90;;;;;;5054419;28;20188;-31
2022/07/04 01:25:59;;;;;;;5.22;2.05;;;20.90;99.90;;;;;;5054260;28;20332;-31
2022/07/04 01:28:25;;;;;;;2.17;2.03;;;20.90;99.90;;;;;;5053679;28;20173;-31
2022/07/04 01:30:52;;;;;;;2.25;1.98;;;20.80;99.90;;;;;;5073465;28;20243;-32
2022/07/04 01:33:19;;;;;;;2.97;2.03;;;20.80;99.90;;;;;;5052237;28;20192;-32
2022/07/04 01:35:45;;;;;;;3.00;2.00;;;20.80;99.90;;;;;;5051907;28;20185;-31
2022/07/04 01:38:11;;;;;;;1.90;1.80;;;20.70;99.90;;;;;;5070036;28;20177;-32
2022/07/04 01:40:37;;;;;;;2.97;2.20;;;20.80;99.90;;;;;;5051533;28;20176;-32
2022/07/04 01:46:51;;;;;;;3.65;2.13;;;20.80;99.90;;;;;;5080963;28;20182;-32
2022/07/04 01:49:17;;;;;;;2.53;1.92;;;20.70;99.90;;;;;;5075083;28;20243;-32
2022/07/04 01:51:50;;;;;;;2.10;1.90;;;20.80;99.90;;;;;;5075379;28;20207;-32
2022/07/04 01:54:16;;;;;;;4.35;2.40;;;20.80;99.90;;;;;;5074920;28;20176;-32
2022/07/04 01:56:43;;;;;;;3.58;2.10;;;20.90;99.90;;;;;;5083373;28;20240;-32
2022/07/04 01:59:09;;;;;;;2.67;1.83;;;20.90;99.90;;;;;;5053815;28;20180;-32
2022/07/04 02:01:37;;;;;;;3.08;2.17;;;20.80;99.90;;;;;;5075217;28;20218;-32
2022/07/04 02:04:04;;;;;;;2.20;2.00;;;20.90;99.90;;;;;;5075084;28;20172;-32
2022/07/04 02:06:30;;;;;;;3.10;2.15;;;20.90;99.90;;;;;;5074787;28;20256;-32
2022/07/04 02:09:15;;;;;;;2.15;1.95;;;20.90;99.90;;;;;;5075119;28;20180;-32
2022/07/04 02:14:29;;;;;;;2.05;1.85;;;20.70;99.90;;;;;;5074984;28;20183;-32
2022/07/04 02:16:54;;;;;;;2.20;2.00;;;20.60;99.90;;;;;;5058307;28;20185;-32
2022/07/04 02:19:20;;;;;;;2.35;2.03;;;20.60;99.90;;;;;;5064353;28;20188;-31
2022/07/04 02:21:46;;;;;;;3.75;2.25;;;20.50;99.90;;;;;;5074685;28;20255;-32
2022/07/04 02:24:12;;;;;;;1.77;1.67;;;20.50;99.90;;;;;;5066499;28;20177;-33
2022/07/04 02:26:38;;;;;;;3.67;2.05;;;20.40;99.90;;;;;;5075123;28;20188;-32
2022/07/04 02:29:04;;;;;;;1.98;1.88;;;20.40;99.90;;;;;;5074437;28;20600;-32
2022/07/04 02:31:30;;;;;;;3.13;2.17;;;20.30;99.90;;;;;;5057854;28;20283;-32
2022/07/04 02:33:56;;;;;;;2.00;1.80;;;20.20;99.90;;;;;;5087887;28;20185;-32
2022/07/04 02:36:22;;;;;;;3.33;1.75;;;20.20;99.90;;;;;;5060165;28;20212;-32
2022/07/04 02:38:48;;;;;;;2.50;2.00;;;20.10;99.90;;;;;;5074642;28;20177;-31
2022/07/04 02:41:13;;;;;;;3.58;1.80;;;20.00;99.90;;;;;;5065869;28;20203;-32
2022/07/04 02:43:39;;;;;;;6.30;2.00;;;20.10;99.90;;;;;;5061970;28;20208;-32
2022/07/04 02:46:05;;;;;;;5.05;1.70;;;20.10;99.90;;;;;;5088214;28;20176;-32
2022/07/04 02:48:31;;;;;;;3.75;1.95;;;20.10;99.90;;;;;;5066508;28;20209;-32
2022/07/04 02:50:57;;;;;;;3.90;1.80;;;20.10;99.90;;;;;;5043233;28;20249;-32
2022/07/04 02:53:22;;;;;;;2.53;1.83;;;20.20;99.90;;;;;;5037995;28;20181;-32
2022/07/04 02:55:48;;;;;;;2.35;1.80;;;20.10;99.90;;;;;;5056088;28;20182;-32
2022/07/04 02:58:14;;;;;;;4.10;1.58;;;20.00;99.90;;;;;;5074251;28;20267;-32
2022/07/04 03:00:40;;;;;;;5.00;2.35;;;19.90;99.90;;;;;;5073867;28;20181;-32
2022/07/04 03:03:05;;;;;;;2.90;2.05;;;19.90;99.90;;;;;;5057358;28;20234;-32
2022/07/04 03:05:32;;;;;;;2.70;1.95;;;19.80;99.90;;;;;;5061579;28;20188;-31
2022/07/04 03:07:58;;;;;;;2.25;1.95;;;19.80;99.90;;;;;;5063758;28;20177;-32
2022/07/04 03:10:24;;;;;;;4.88;1.95;;;19.70;99.90;;;;;;5074215;28;20179;-32
2022/07/04 03:12:49;;;;;;;3.53;1.90;;;19.70;99.90;;;;;;5060884;28;20214;-32
2022/07/04 03:15:15;;;;;;;3.50;2.00;;;19.60;99.90;;;;;;5046057;28;20188;-32
2022/07/04 03:17:41;;;;;;;3.15;2.00;;;19.60;99.90;;;;;;5054525;28;20212;-31
2022/07/04 03:20:07;;;;;;;3.75;2.25;;;19.60;99.90;;;;;;5072003;28;20189;-31
2022/07/04 03:22:33;;;;;;;2.25;2.05;;;19.70;99.90;;;;;;5056545;28;20208;-31
2022/07/04 03:24:59;;;;;;;4.50;2.30;;;19.70;99.90;;;;;;5073797;28;20176;-32
2022/07/04 03:27:25;;;;;;;2.67;2.10;;;19.70;99.90;;;;;;5062594;28;20200;-32
2022/07/04 03:29:51;;;;;;;3.17;1.90;;;19.60;99.90;;;;;;5073375;28;20212;-32
2022/07/04 03:32:16;;;;;;;3.63;1.95;;;19.60;99.90;;;;;;5091200;28;20300;-32
2022/07/04 03:34:42;;;;;;;3.25;2.00;;;19.50;99.90;;;;;;5056219;28;20448;-32
2022/07/04 03:37:08;;;;;;;5.35;2.40;;;19.50;99.90;;;;;;5073203;28;20184;-32
2022/07/04 03:39:34;;;;;;;3.25;2.35;;;19.40;99.90;;;;;;5073869;28;20208;-32
2022/07/04 03:41:59;;;;;;;3.03;2.00;;;19.40;99.90;;;;;;5073057;28;20203;-32
2022/07/04 03:44:25;;;;;;;3.65;2.35;;;19.40;99.90;;;;;;5073064;28;20256;-32
2022/07/04 03:46:51;;;;;;;2.40;1.90;;;19.30;99.90;;;;;;5062579;28;20185;-32
2022/07/04 03:49:17;;;;;;;2.85;2.20;;;19.30;99.90;;;;;;5073010;28;20243;-32
2022/07/04 03:51:43;;;;;;;3.50;2.30;;;19.20;99.90;;;;;;5072757;28;20220;-32
2022/07/04 03:54:09;;;;;;;2.30;2.10;;;19.20;99.90;;;;;;5073515;28;20196;-32
2022/07/04 03:56:34;;;;;;;3.38;2.53;;;19.20;99.90;;;;;;5056424;28;20237;-32
2022/07/04 03:59:00;;;;;;;3.72;2.28;;;19.20;99.90;;;;;;5073078;28;20188;-32
2022/07/04 04:01:26;;;;;;;2.95;2.50;;;19.10;99.90;;;;;;5071180;28;20242;-31
2022/07/04 04:06:36;;;;;;;6.30;2.50;;;19.20;99.90;;;;;;5072945;28;20188;-32
2022/07/04 04:09:02;;;;;;;3.80;2.10;;;19.20;99.90;;;;;;5055473;28;20172;-32
2022/07/04 04:11:28;;;;;;;2.25;2.05;;;19.20;99.90;;;;;;5089226;28;20188;-32
2022/07/04 04:13:54;;;;;;;3.95;2.33;;;19.20;99.90;;;;;;5072848;28;20184;-32
2022/07/04 04:16:23;;;;;;;2.90;2.30;;;19.20;99.90;;;;;;5054670;28;20710;-32
2022/07/04 04:18:50;;;;;;;3.28;2.53;;;19.20;99.90;;;;;;5055837;28;20180;-32
2022/07/04 04:21:17;;;;;;;2.88;2.40;;;19.10;99.90;;;;;;5071677;28;20215;-32
2022/07/04 04:23:43;;;;;;;6.88;2.75;;;19.10;99.90;;;;;;5088813;28;20176;-33
2022/07/04 04:26:10;;;;;;;3.53;2.25;;;19.10;99.90;;;;;;5068816;28;20199;-32
2022/07/04 04:28:36;;;;;;;6.55;2.10;;;19.10;99.90;;;;;;5087343;28;20176;-32
2022/07/04 04:31:02;;;;;;;4.22;2.08;;;19.20;99.90;;;;;;5054091;28;20204;-32
2022/07/04 04:33:27;;;;;;;3.13;2.60;;;19.20;99.90;;;;;;5071072;28;20189;-31
2022/07/04 04:35:53;;;;;;;3.47;2.50;;;19.20;99.90;;;;;;5058497;28;20180;-32
2022/07/04 04:38:19;;;;;;;2.55;2.35;;;19.20;99.90;;;;;;5055740;28;20241;-32
2022/07/04 04:40:45;;;;;;;2.30;2.10;;;19.30;99.90;;;;;;5072530;28;20189;-32
2022/07/04 04:43:11;;;;;;;5.72;2.30;;;19.30;99.90;;;;;;5052281;28;20213;-33
2022/07/04 04:45:36;;;;;;;2.35;2.10;;;19.30;99.90;;;;;;5035249;28;20185;-32
2022/07/04 04:48:02;;;;;;;2.10;1.95;;;19.30;99.90;;;;;;5072116;28;20257;-32
2022/07/04 04:50:28;;;;;;;2.92;2.20;;;19.40;99.90;;;;;;5072802;28;20180;-32
2022/07/04 04:52:54;;;;;;;3.03;2.20;;;19.40;99.90;;;;;;5044026;28;20177;-32
2022/07/04 04:55:20;;;;;;;2.83;2.30;;;19.50;99.90;;;;;;5070682;28;20183;-32
2022/07/04 04:57:45;;;;;;;2.35;2.15;;;19.50;99.90;;;;;;5042286;28;20675;-31
2022/07/04 05:00:12;;;;;;;4.43;2.25;;;19.50;99.90;;;;;;5071413;28;20272;-32
2022/07/04 05:02:37;;;;;;;3.20;2.20;;;19.50;99.90;;;;;;5069690;28;20215;-32
2022/07/04 05:05:03;;;;;;;3.80;2.42;;;19.40;99.90;;;;;;5072462;28;20173;-32
2022/07/04 05:07:29;;;;;;;2.55;2.35;;;19.30;99.90;;;;;;5072541;28;20177;-32
2022/07/04 05:09:58;;;;;;;3.13;2.10;;;19.30;99.90;;;;;;5069291;28;20226;-31
2022/07/04 05:12:25;;;;;;;4.40;2.15;;;19.30;99.90;;;;;;5068099;28;20221;-32
2022/07/04 05:14:52;;;;;;;3.88;2.35;;;19.40;99.90;;;;;;5072044;28;20180;-32
2022/07/04 05:17:18;;;;;;;3.88;2.40;;;19.30;99.90;;;;;;5055424;28;20180;-32
2022/07/04 05:19:44;;;;;;;3.85;2.40;;;19.40;99.90;;;;;;5071987;28;20225;-31
2022/07/04 05:22:10;;;;;;;3.55;2.33;;;19.40;99.90;;;;;;5077677;28;20212;-31
2022/07/04 05:24:39;;;;;;;3.60;2.22;;;19.30;99.90;;;;;;5065050;28;20244;-32
2022/07/04 05:27:06;;;;;;;3.22;2.55;;;19.30;99.90;;;;;;5075396;28;20230;-31
2022/07/04 05:29:32;;;;;;;2.90;2.30;;;19.30;99.90;;;;;;5059656;28;20184;-32
2022/07/04 05:31:58;;;;;;;5.03;2.47;;;19.30;99.90;;;;;;5075997;28;20192;-31
2022/07/04 05:34:23;;;;;;;5.85;2.28;;;19.40;99.90;;;;;;5092844;28;20262;-32
2022/07/04 05:36:49;;;;;;;5.70;2.85;;;19.60;99.90;;;;;;5089414;28;20215;-31
2022/07/04 05:39:16;;;;;;;4.18;2.30;;;19.70;99.90;;;;;;5094114;28;20176;-31
2022/07/04 05:41:42;;;;;;;5.43;2.67;;;19.80;99.90;;;;;;5075101;28;20200;-32
2022/07/04 05:44:08;;;;;;;5.35;2.20;;;19.90;99.90;;;;;;5073472;28;20184;-31
2022/07/04 05:46:34;;;;;;;3.83;2.70;;;20.00;99.90;;;;;;5069738;28;20180;-32
2022/07/04 05:49:00;;;;;;;3.28;2.42;;;20.00;99.90;;;;;;5075006;28;20253;-31
2022/07/04 05:51:26;;;;;;;4.05;2.30;;;20.20;99.90;;;;;;5083102;28;20239;-31
2022/07/04 05:53:52;;;;;;;4.22;2.30;;;20.30;99.90;;;;;;5089572;28;20176;-32
2022/07/04 05:56:18;;;;;;;3.70;2.50;;;20.40;99.90;;;;;;5095005;28;20157;-32
2022/07/04 05:58:45;;;;;;;3.22;1.98;;;20.40;99.90;;;;;;5082715;28;20250;-31
2022/07/04 06:01:11;;;;;;;6.65;1.88;;;20.50;99.90;;;;;;5085394;28;20201;-32
2022/07/04 06:03:37;;;;;;;2.83;2.15;;;20.60;99.90;;;;;;5086726;28;20188;-32
2022/07/04 06:06:04;;;;;;;7.88;2.03;;;20.70;99.90;;;;;;5070858;28;20188;-31
2022/07/04 06:08:33;;;;;;;8.07;2.33;;;20.60;99.90;;;;;;5074542;28;20173;-31
2022/07/04 06:11:03;;;;;;;3.85;1.83;;;20.70;99.90;;;;;;5082968;28;20188;-31
2022/07/04 06:13:29;;;;;;;2.30;1.88;;;20.80;99.90;;;;;;5075166;28;20256;-32
2022/07/04 06:15:55;;;;;;;4.25;1.83;;;20.70;99.90;;;;;;5074564;28;20180;-32
2022/07/04 06:18:21;;;;;;;4.50;2.00;;;20.70;99.90;;;;;;5074049;28;20181;-31
2022/07/04 06:20:47;;;;;;;3.53;1.88;;;20.70;99.90;;;;;;5075099;28;20212;-31
2022/07/04 06:23:13;;;;;;;3.15;1.83;;;20.80;99.90;;;;;;5092985;28;20203;-31
2022/07/04 06:25:39;;;;;;;5.75;1.90;;;20.90;99.90;;;;;;5057985;28;20173;-32
2022/07/04 06:28:05;;;;;;;2.22;2.05;;;20.90;99.90;;;;;;5075038;28;20198;-31
2022/07/04 06:30:30;;;;;;;3.20;1.75;;;21.00;99.90;;;;;;5075001;28;20183;-32
2022/07/04 06:32:59;;;;;;;2.95;1.80;;;21.00;99.90;;;;;;5057469;28;20280;-32
2022/07/04 06:38:19;;;;;;;3.03;1.80;;;21.00;99.90;;;;;;5074748;28;20267;-32
2022/07/04 06:40:45;;;;;;;3.08;1.80;;;21.00;99.90;;;;;;5074966;28;20216;-32
2022/07/04 06:43:12;;;;;;;3.47;2.03;;;21.10;99.90;;;;;;5074798;28;20216;-32
2022/07/04 06:45:38;;;;;;;2.58;1.75;;;21.00;99.90;;;;;;5074387;28;20184;-32
2022/07/04 06:48:05;;;;;;;2.70;1.90;;;21.00;99.90;;;;;;5074468;28;20191;-31
2022/07/04 06:50:32;;;;;;;3.30;1.73;;;20.90;99.90;;;;;;5074199;28;20184;-32
2022/07/04 06:53:03;;;;;;;3.53;1.50;;;21.00;99.90;;;;;;5058004;28;20212;-32
2022/07/04 06:55:30;;;;;;;2.40;1.75;;;21.00;99.90;;;;;;5057699;28;20180;-31
2022/07/04 06:57:56;;;;;;;2.92;1.95;;;21.10;99.90;;;;;;5057862;28;20176;-31
2022/07/04 07:00:22;;;;;;;2.90;1.83;;;21.10;99.90;;;;;;5074322;28;20192;-31
2022/07/04 07:02:48;;;;;;;3.38;1.80;;;21.20;99.90;;;;;;5074183;28;20210;-31
2022/07/04 07:05:13;;;;;;;2.90;1.55;;;21.40;99.90;;;;;;5073945;28;20180;-31
2022/07/04 07:07:39;;;;;;;3.50;2.03;;;21.50;99.90;;;;;;5074253;28;20176;-32
2022/07/04 07:10:06;;;;;;;2.92;1.73;;;21.60;99.90;;;;;;5074421;28;20180;-31
2022/07/04 07:12:33;;;;;;;4.22;1.80;;;21.50;99.90;;;;;;5074367;28;20238;-32
2022/07/04 07:14:59;;;;;;;3.30;1.88;;;21.60;99.90;;;;;;5074017;28;20176;-31
2022/07/04 07:17:26;;;;;;;2.25;1.85;;;21.70;99.90;;;;;;5073945;28;20216;-32
2022/07/04 07:19:52;;;;;;;3.55;1.67;;;21.70;99.90;;;;;;5073848;28;20239;-32
2022/07/04 07:22:18;;;;;;;3.70;2.50;;;21.80;99.90;;;;;;5073873;28;20240;-31
2022/07/04 07:24:43;;;;;;;1.70;1.60;;;21.70;99.90;;;;;;5073894;28;20185;-32
2022/07/04 07:27:10;;;;;;;1.98;1.60;;;21.70;99.90;;;;;;5090821;28;20173;-32
2022/07/04 07:29:36;;;;;;;3.58;1.90;;;21.80;99.90;;;;;;5076017;28;20195;-31
2022/07/04 07:32:03;;;;;;;1.80;1.50;;;21.70;99.90;;;;;;5091388;28;20244;-32
2022/07/04 07:34:29;;;;;;;2.63;1.77;;;21.70;99.90;;;;;;5070388;28;20204;-31
2022/07/04 07:36:55;;;;;;;3.25;1.88;;;21.80;99.90;;;;;;5074152;28;20216;-32
2022/07/04 07:39:21;;;;;;;3.65;1.80;;;21.80;99.90;;;;;;5053810;28;20181;-32
2022/07/04 07:41:47;;;;;;;2.42;1.98;;;21.90;99.90;;;;;;5052138;28;20439;-32
2022/07/04 07:44:13;;;;;;;2.55;2.10;;;22.00;99.90;;;;;;5072309;28;20180;-32
2022/07/04 07:46:39;;;;;;;1.77;1.67;;;22.00;99.90;;;;;;5073129;28;20183;-32
2022/07/04 07:49:05;;;;;;;3.78;1.92;;;21.90;99.90;;;;;;5072507;28;20223;-32
2022/07/04 07:51:31;;;;;;;2.00;1.70;;;22.00;99.90;;;;;;5056763;28;20216;-31
2022/07/04 07:53:57;;;;;;;3.88;2.05;;;22.10;99.90;;;;;;5072876;28;20202;-31
2022/07/04 07:56:23;;;;;;;4.10;2.10;;;22.10;99.90;;;;;;5073449;28;20169;-32
2022/07/04 07:58:50;;;;;;;2.17;1.80;;;22.10;99.90;;;;;;5071542;28;20195;-32
2022/07/04 08:01:16;;;;;;;4.40;1.80;;;22.30;99.90;;;;;;5091215;28;20189;-32
2022/07/04 08:06:27;;;;;;;4.50;1.92;;;22.30;99.90;;;;;;5080676;28;20253;-32
2022/07/04 08:08:53;;;;;;;3.80;1.85;;;22.50;99.90;;;;;;5072952;28;20575;-32
2022/07/04 08:11:20;;;;;;;4.05;1.83;;;22.60;99.90;;;;;;5072881;28;20192;-32
2022/07/04 08:13:46;;;;;;;4.00;2.05;;;22.80;99.90;;;;;;5072743;28;20271;-32
2022/07/04 08:16:12;;;;;;;3.60;2.00;;;22.80;99.90;;;;;;5094593;28;20184;-31
2022/07/04 08:18:38;;;;;;;4.10;2.00;;;22.70;99.90;;;;;;5054389;28;20279;-32
2022/07/04 08:21:04;;;;;;;5.82;2.05;;;22.70;99.90;;;;;;5053013;28;20200;-32
2022/07/04 08:23:32;;;;;;;5.00;1.88;;;22.90;99.90;;;;;;5077364;28;20211;-32
2022/07/04 08:26:00;;;;;;;4.13;2.00;;;23.00;99.90;;;;;;5064077;28;20264;-32
2022/07/04 08:28:27;;;;;;;2.85;1.80;;;23.10;99.90;;;;;;5053694;28;20180;-32
2022/07/04 08:30:53;;;;;;;4.93;1.92;;;23.30;99.90;;;;;;5071995;28;20193;-32
2022/07/04 08:33:19;;;;;;;2.85;1.60;;;23.30;99.90;;;;;;5072266;28;20203;-32
2022/07/04 08:35:45;;;;;;;2.63;1.92;;;23.30;99.90;;;;;;5091155;28;20203;-32
2022/07/04 08:38:11;;;;;;;4.05;2.67;;;23.50;99.90;;;;;;5072856;28;20207;-32
2022/07/04 08:40:37;;;;;;;5.65;2.05;;;23.60;99.90;;;;;;5072535;28;20188;-32
2022/07/04 08:43:03;;;;;;;3.13;2.05;;;23.50;99.90;;;;;;5055596;28;20200;-32
2022/07/04 08:45:34;;;;;;;4.22;2.00;;;23.70;99.90;;;;;;5055770;28;20176;-32
2022/07/04 08:48:08;;;;;;;5.68;2.40;;;23.90;99.90;;;;;;5072690;28;20189;-32
2022/07/04 08:50:43;;;;;;;3.58;2.00;;;23.70;99.90;;;;;;5072501;28;20233;-32
2022/07/04 08:53:14;;;;;;;1.58;1.48;;;23.70;99.90;;;;;;5055841;28;20180;-32
2022/07/04 08:58:30;;;;;;;3.22;2.28;;;24.10;99.90;;;;;;5090699;28;20184;-32
2022/07/04 09:01:01;;;;;;;3.15;1.88;;;24.40;99.90;;;;;;5056020;28;20212;-32
2022/07/04 09:03:28;;;;;;;4.00;1.85;;;24.70;99.90;;;;;;5072540;28;20206;-32
2022/07/04 09:05:55;;;;;;;2.97;2.03;;;24.90;99.90;;;;;;5071919;28;20176;-32
2022/07/04 09:08:21;;;;;;;3.08;1.75;;;24.90;99.90;;;;;;5055687;28;20180;-32
2022/07/04 09:10:48;;;;;;;4.43;1.83;;;25.10;99.90;;;;;;5072403;28;20228;-32
2022/07/04 09:13:15;;;;;;;6.88;2.22;;;25.00;99.90;;;;;;5072446;28;20204;-32
2022/07/04 09:15:42;;;;;;;9.93;2.47;;;25.10;99.90;;;;;;5055417;28;20663;-32
2022/07/04 09:18:27;;;;;;;2.63;1.70;;;25.30;99.90;;;;;;5072202;28;20273;-32
2022/07/04 09:20:55;;;;;;;6.03;2.15;;;25.30;99.90;;;;;;5055377;28;20208;-32
2022/07/04 09:23:26;;;;;;;3.30;1.83;;;25.50;99.90;;;;;;5055625;28;20314;-32
2022/07/04 09:26:17;;;;;;;3.50;2.00;;;25.80;99.90;;;;;;5072113;28;20200;-31
2022/07/04 09:28:57;;;;;;;4.47;2.10;;;25.60;99.90;;;;;;5072171;28;20173;-33
2022/07/04 09:31:28;;;;;;;2.67;1.73;;;25.70;99.90;;;;;;5090397;28;20218;-32
2022/07/04 09:33:57;;;;;;;2.95;2.05;;;26.00;99.90;;;;;;5072159;28;20230;-31
2022/07/04 09:36:31;;;;;;;2.47;1.98;;;26.00;99.90;;;;;;5090495;28;20172;-32
2022/07/04 09:39:18;;;;;;;4.07;1.90;;;26.00;99.90;;;;;;5055665;28;20176;-32
2022/07/04 09:42:02;;;;;;;2.22;2.03;;;26.20;99.90;;;;;;5072191;28;20208;-32
2022/07/04 09:44:34;;;;;;;3.13;1.80;;;26.50;99.90;;;;;;5090088;28;20180;-32
2022/07/04 09:47:23;;;;;;;3.17;1.85;;;26.80;99.90;;;;;;5072285;28;20169;-32
2022/07/04 09:50:18;;;;;;;3.53;2.35;;;26.90;99.90;;;;;;5055141;28;20219;-31
2022/07/04 09:53:05;;;;;;;4.03;2.17;;;26.90;99.90;;;;;;5072083;28;20207;-32
2022/07/04 09:55:38;;;;;;;3.05;1.90;;;26.90;99.90;;;;;;5071721;28;20184;-32
2022/07/04 09:58:14;;;;;;;3.38;1.85;;;27.10;99.90;;;;;;5080041;28;20285;-32
2022/07/04 10:00:42;;;;;;;2.30;2.00;;;27.40;99.90;;;;;;5066043;28;20197;-32
2022/07/04 10:03:26;;;;;;;1.83;1.60;;;27.60;99.90;;;;;;5052145;28;20611;-33
2022/07/04 10:06:10;;;;;;;2.58;1.70;;;27.70;99.90;;;;;;5065633;28;20218;-33
2022/07/04 10:08:39;;;;;;;4.68;1.90;;;28.00;99.90;;;;;;5086801;28;20179;-32
2022/07/04 10:11:06;;;;;;;4.30;1.80;;;28.00;99.90;;;;;;5083224;28;20258;-33
2022/07/04 10:13:35;;;;;;;2.80;1.80;;;27.70;99.90;;;;;;5075813;28;20199;-32
2022/07/04 10:16:01;;;;;;;1.90;1.75;;;27.40;99.90;;;;;;5056282;28;20181;-33
2022/07/04 10:18:30;;;;;;;3.35;1.70;;;26.90;99.90;;;;;;5045534;28;20234;-32
2022/07/04 10:20:57;;;;;;;2.22;1.67;;;26.60;99.90;;;;;;5057870;28;20204;-33
2022/07/04 10:23:30;;;;;;;3.78;1.63;;;26.50;99.90;;;;;;5058183;28;20283;-32
2022/07/04 10:25:59;;;;;;;2.90;1.67;;;26.40;99.90;;;;;;5095270;28;20180;-32
2022/07/04 10:28:25;;;;;;;2.70;1.90;;;26.30;99.90;;;;;;5078389;28;20208;-33
2022/07/04 10:30:54;;;;;;;2.85;1.90;;;26.30;99.90;;;;;;5061699;28;20196;-32
2022/07/04 10:33:25;;;;;;;2.95;2.00;;;26.50;99.90;;;;;;5078648;28;20177;-32
2022/07/04 10:36:03;;;;;;;3.13;1.70;;;26.80;99.90;;;;;;5066996;28;20204;-32
2022/07/04 10:38:29;;;;;;;3.28;1.80;;;26.90;99.90;;;;;;5039316;28;20318;-32
2022/07/04 10:41:06;;;;;;;2.10;1.52;;;26.90;99.90;;;;;;5072758;28;20572;-32
2022/07/04 10:43:37;;;;;;;4.07;1.70;;;27.10;99.90;;;;;;5058532;28;20245;-33
2022/07/04 10:46:06;;;;;;;1.90;1.70;;;27.30;99.90;;;;;;5058491;28;20169;-33
2022/07/04 10:48:32;;;;;;;1.70;1.60;;;27.50;99.90;;;;;;5057965;28;20193;-32
2022/07/04 10:51:06;;;;;;;2.75;1.80;;;27.50;99.90;;;;;;5074484;28;20204;-33
2022/07/04 10:53:58;;;;;;;3.17;1.75;;;27.60;99.90;;;;;;5051873;28;20184;-32
2022/07/04 10:56:30;;;;;;;2.15;1.92;;;27.40;99.90;;;;;;5095023;28;20176;-32
2022/07/04 10:59:01;;;;;;;1.50;1.40;;;27.20;99.90;;;;;;5082993;28;20173;-32
2022/07/04 11:01:27;;;;;;;3.60;1.80;;;27.30;99.90;;;;;;5069011;28;20197;-33
2022/07/04 11:03:54;;;;;;;4.80;1.90;;;27.30;99.90;;;;;;5094474;28;20176;-32
2022/07/04 11:06:38;;;;;;;3.05;1.50;;;27.50;99.90;;;;;;5083176;28;20177;-32
2022/07/04 11:09:23;;;;;;;3.63;2.00;;;27.70;99.90;;;;;;5073841;28;20176;-33
2022/07/04 11:11:57;;;;;;;2.28;1.55;;;28.10;99.90;;;;;;5068393;28;20200;-33
2022/07/04 11:14:39;;;;;;;4.30;1.50;;;28.10;99.90;;;;;;5059468;28;20257;-33
2022/07/04 11:17:19;;;;;;;4.45;1.88;;;28.60;99.90;;;;;;5037292;28;20201;-32
2022/07/04 11:19:46;;;;;;;1.95;1.65;;;28.40;99.90;;;;;;5062640;28;20191;-33
2022/07/04 11:22:22;;;;;;;4.07;1.70;;;28.40;99.90;;;;;;5072782;28;20208;-33
2022/07/04 11:24:48;;;;;;;2.50;1.90;;;28.80;99.90;;;;;;5059260;28;20175;-33
2022/07/04 11:27:15;;;;;;;2.33;1.63;;;29.00;99.90;;;;;;5074892;28;20184;-33
2022/07/04 11:30:01;;;;;;;2.95;1.90;;;29.20;99.90;;;;;;5083536;28;20195;-33
2022/07/04 11:32:31;;;;;;;2.63;2.25;;;29.00;99.90;;;;;;5064488;28;20213;-33
2022/07/04 11:34:57;;;;;;;2.83;1.60;;;28.90;99.90;;;;;;5067429;28;20176;-33
2022/07/04 11:37:23;;;;;;;4.63;2.13;;;29.00;99.90;;;;;;5070868;28;20230;-33
2022/07/04 11:45:02;;;;;;;1.85;1.70;;;29.10;99.90;;;;;;5056352;28;20173;-33
2022/07/04 11:45:24;;;;;;;2.67;2.10;;;29.30;99.90;;;;;;5070237;28;20199;-33
2022/07/04 11:47:50;;;;;;;3.30;1.80;;;29.70;99.90;;;;;;5070663;28;20237;-33
2022/07/04 11:50:18;;;;;;;3.20;1.73;;;29.90;99.90;;;;;;5053893;28;20188;-33
2022/07/04 11:52:53;;;;;;;3.05;1.80;;;30.00;99.80;;;;;;5036746;28;20232;-33
2022/07/04 11:55:21;;;;;;;4.13;1.77;;;29.50;99.60;;;;;;5069791;28;20278;-33
2022/07/04 11:57:51;;;;;;;2.92;1.90;;;29.60;99.90;;;;;;5036684;28;20181;-33
2022/07/04 12:00:24;;;;;;;2.95;1.92;;;29.60;99.90;;;;;;5070138;28;20185;-33
2022/07/04 12:02:50;;;;;;;2.08;1.75;;;29.70;99.90;;;;;;5069612;28;20282;-33
2022/07/04 12:05:17;;;;;;;2.72;1.55;;;30.00;99.90;;;;;;5069674;28;20208;-33
2022/07/04 12:07:45;;;;;;;2.67;1.98;;;29.90;99.90;;;;;;5053247;28;20184;-33
2022/07/04 12:10:13;;;;;;;2.05;1.65;;;30.10;99.90;;;;;;5071183;28;20170;-33
2022/07/04 12:12:54;;;;;;;2.65;1.60;;;30.30;99.90;;;;;;5053196;28;20205;-33
2022/07/04 12:15:22;;;;;;;3.10;1.75;;;30.60;99.60;;;;;;5070687;28;20165;-33
2022/07/04 12:17:54;;;;;;;3.78;1.98;;;30.80;99.30;;;;;;5071427;28;20185;-33
2022/07/04 12:20:21;;;;;;;2.67;1.77;;;30.90;99.20;;;;;;5056405;28;20183;-33
2022/07/04 12:22:57;;;;;;;1.92;1.83;;;30.70;98.10;;;;;;5072855;28;20212;-33
2022/07/04 12:25:32;;;;;;;3.35;1.80;;;30.70;98.30;;;;;;5056261;28;20187;-33
2022/07/04 12:28:00;;;;;;;2.85;1.45;;;30.80;98.20;;;;;;5090859;28;20178;-33
2022/07/04 12:30:28;;;;;;;3.25;1.90;;;30.90;98.60;;;;;;5072359;28;20180;-33
2022/07/04 12:33:01;;;;;;;3.00;1.70;;;31.00;99.90;;;;;;5072800;28;20195;-33
2022/07/04 12:35:44;;;;;;;2.80;1.90;;;30.90;99.30;;;;;;5072661;28;20189;-33
2022/07/04 12:38:33;;;;;;;4.18;1.90;;;30.70;99.90;;;;;;5055957;28;20203;-33
2022/07/04 12:41:07;;;;;;;2.35;1.80;;;30.40;99.90;;;;;;5055986;28;20212;-33
2022/07/04 12:43:42;;;;;;;2.58;1.98;;;30.20;99.90;;;;;;5055977;28;20242;-33
2022/07/04 12:46:08;;;;;;;2.22;1.80;;;30.10;99.90;;;;;;5072515;28;20233;-33
2022/07/04 12:48:35;;;;;;;1.88;1.70;;;30.10;99.90;;;;;;5072610;28;20185;-33
2022/07/04 12:51:24;;;;;;;2.03;1.73;;;30.10;99.90;;;;;;5055595;28;20200;-33
2022/07/04 12:53:53;;;;;;;5.22;1.88;;;30.20;99.90;;;;;;5090533;28;20164;-33
2022/07/04 12:56:42;;;;;;;2.00;1.80;;;30.00;99.90;;;;;;5055968;28;20241;-33
2022/07/04 12:59:10;;;;;;;2.22;1.70;;;29.90;99.90;;;;;;5072414;28;20183;-33
2022/07/04 13:01:36;;;;;;;2.42;2.00;;;30.10;99.90;;;;;;5072389;28;20200;-33
2022/07/04 13:04:03;;;;;;;3.42;1.92;;;30.30;99.90;;;;;;5055627;28;20172;-33
2022/07/04 13:06:29;;;;;;;3.17;1.80;;;30.00;99.80;;;;;;5090698;28;20203;-33
2022/07/04 13:08:58;;;;;;;2.17;1.98;;;29.90;99.90;;;;;;5055630;28;20233;-33
2022/07/04 13:14:10;;;;;;;2.15;1.75;;;29.50;99.90;;;;;;5075076;28;20195;-33
2022/07/04 13:16:35;;;;;;;2.42;1.88;;;29.90;99.90;;;;;;5079873;28;20235;-33